createdAt,value
2022-09-28T00:00:52.364Z,65.95
2022-09-28T00:03:19.232Z,66.05
2022-09-28T00:05:45.986Z,65.49
2022-09-28T00:08:13.781Z,64.70
2022-09-28T00:10:41.571Z,66.92
2022-09-28T00:13:08.380Z,64.58
2022-09-28T00:15:35.718Z,65.28
2022-09-28T00:18:02.577Z,65.56
2022-09-28T00:20:29.323Z,67.93
2022-09-28T00:22:56.050Z,66.73
2022-09-28T00:25:25.020Z,67.24
2022-09-28T00:27:51.815Z,66.89
2022-09-28T00:30:18.586Z,67.43
2022-09-28T00:32:45.523Z,67.62
2022-09-28T00:35:12.388Z,67.41
2022-09-28T00:37:39.336Z,67.14
2022-09-28T00:40:06.749Z,66.71
2022-09-28T00:42:33.858Z,68.74
2022-09-28T00:45:00.607Z,66.84
2022-09-28T00:47:49.945Z,66.43
2022-09-28T00:50:28.991Z,67.39
2022-09-28T00:52:57.764Z,67.50
2022-09-28T00:55:34.533Z,68.38
2022-09-28T00:58:05.751Z,66.83
2022-09-28T01:00:32.669Z,65.92
2022-09-28T01:03:00.062Z,66.95
2022-09-28T01:05:27.532Z,66.53
2022-09-28T01:07:56.509Z,67.63
2022-09-28T01:10:23.890Z,66.97
2022-09-28T01:12:50.986Z,66.17
2022-09-28T01:15:21.853Z,65.51
2022-09-28T01:18:00.064Z,65.54
2022-09-28T01:21:01.381Z,64.98
2022-09-28T01:23:44.229Z,64.85
2022-09-28T01:26:29.397Z,63.16
2022-09-28T01:29:04.770Z,64.25
2022-09-28T01:31:36.485Z,63.32
2022-09-28T01:34:39.556Z,64.10
2022-09-28T01:37:12.431Z,64.00
2022-09-28T01:39:47.633Z,65.45
2022-09-28T01:42:27.609Z,65.53
2022-09-28T01:45:01.078Z,64.58
2022-09-28T01:47:33.441Z,64.02
2022-09-28T01:50:11.216Z,64.10
2022-09-28T01:52:56.434Z,64.01
2022-09-28T01:55:30.856Z,63.51
2022-09-28T01:58:34.430Z,62.90
2022-09-28T02:01:09.388Z,62.93
2022-09-28T02:03:43.114Z,63.19
2022-09-28T02:06:19.044Z,63.60
2022-09-28T02:08:54.796Z,63.31
2022-09-28T02:11:28.303Z,62.96
2022-09-28T02:14:01.986Z,63.89
2022-09-28T02:16:31.836Z,65.13
2022-09-28T02:18:59.180Z,65.02
2022-09-28T02:21:38.532Z,64.18
2022-09-28T02:24:21.564Z,64.59
2022-09-28T02:26:52.122Z,63.49
2022-09-28T02:29:19.142Z,63.74
2022-09-28T02:31:46.083Z,64.00
2022-09-28T02:34:13.099Z,63.40
2022-09-28T02:36:39.918Z,63.71
2022-09-28T02:39:18.160Z,64.78
2022-09-28T02:42:20.420Z,63.45
2022-09-28T02:44:57.875Z,64.21
2022-09-28T02:47:41.864Z,63.05
2022-09-28T02:50:26.324Z,62.71
2022-09-28T02:52:59.223Z,64.00
2022-09-28T02:55:26.126Z,63.13
2022-09-28T02:58:01.839Z,63.85
2022-09-28T03:00:32.128Z,64.13
2022-09-28T03:03:17.368Z,63.38
2022-09-28T03:06:14.691Z,63.60
2022-09-28T03:09:04.876Z,63.29
2022-09-28T03:11:47.264Z,65.04
2022-09-28T03:14:15.420Z,65.74
2022-09-28T03:16:49.661Z,64.64
2022-09-28T03:19:20.301Z,64.92
2022-09-28T03:21:47.886Z,64.51
2022-09-28T03:24:15.006Z,65.72
2022-09-28T03:26:41.918Z,65.14
2022-09-28T03:29:10.132Z,65.58
2022-09-28T03:31:38.361Z,65.60
2022-09-28T03:34:05.763Z,65.30
2022-09-28T03:36:32.683Z,65.78
2022-09-28T03:38:59.811Z,65.43
2022-09-28T03:41:29.978Z,65.00
2022-09-28T03:43:56.925Z,67.17
2022-09-28T03:46:26.186Z,65.26
2022-09-28T03:48:58.408Z,65.58
2022-09-28T03:51:26.353Z,67.16
2022-09-28T03:53:53.635Z,67.81
2022-09-28T03:56:21.035Z,67.70
2022-09-28T03:58:47.928Z,66.86
2022-09-28T04:01:18.822Z,66.49
2022-09-28T04:03:47.335Z,66.46
2022-09-28T04:06:14.678Z,66.94
2022-09-28T04:08:43.145Z,65.19
2022-09-28T04:11:10.470Z,64.58
2022-09-28T04:13:37.425Z,65.33
2022-09-28T04:16:06.802Z,66.31
2022-09-28T04:18:35.396Z,67.61
2022-09-28T04:21:11.850Z,66.85
2022-09-28T04:23:59.598Z,67.73
2022-09-28T04:26:28.472Z,67.23
2022-09-28T04:29:15.145Z,66.48
2022-09-28T04:31:52.759Z,67.58
2022-09-28T04:34:23.195Z,67.41
2022-09-28T04:36:50.154Z,66.73
2022-09-28T04:39:19.365Z,67.03
2022-09-28T04:41:55.365Z,67.59
2022-09-28T04:44:22.252Z,66.83
2022-09-28T04:46:51.858Z,66.99
2022-09-28T04:49:39.053Z,65.94
2022-09-28T04:52:20.193Z,66.23
2022-09-28T04:54:49.197Z,66.97
2022-09-28T04:57:16.646Z,66.42
2022-09-28T04:59:43.507Z,65.88
2022-09-28T05:02:10.482Z,66.69
2022-09-28T05:04:56.609Z,67.10
2022-09-28T05:07:49.279Z,66.96
2022-09-28T05:10:17.313Z,66.89
2022-09-28T05:12:44.157Z,66.17
2022-09-28T05:15:11.481Z,67.87
2022-09-28T05:17:38.369Z,67.15
2022-09-28T05:20:28.038Z,68.46
2022-09-28T05:22:54.934Z,68.41
2022-09-28T05:25:21.888Z,67.17
2022-09-28T05:28:05.248Z,67.72
2022-09-28T05:30:50.617Z,67.82
2022-09-28T05:33:25.156Z,67.18
2022-09-28T05:36:12.190Z,67.68
2022-09-28T05:38:39.167Z,68.31
2022-09-28T05:41:06.875Z,68.48
2022-09-28T05:43:34.000Z,67.57
2022-09-28T05:46:04.097Z,68.48
2022-09-28T05:48:31.236Z,68.10
2022-09-28T05:50:59.809Z,68.05
2022-09-28T05:53:26.798Z,67.82
2022-09-28T05:55:57.288Z,68.38
2022-09-28T05:58:24.199Z,68.34
2022-09-28T06:00:57.564Z,67.24
2022-09-28T06:03:25.193Z,67.26
2022-09-28T06:05:52.089Z,66.77
2022-09-28T06:08:19.484Z,66.23
2022-09-28T06:10:53.605Z,66.22
2022-09-28T06:13:20.932Z,67.83
2022-09-28T06:15:47.876Z,67.08
2022-09-28T06:18:15.297Z,67.58
2022-09-28T06:21:01.224Z,65.85
2022-09-28T06:23:32.814Z,67.02
2022-09-28T06:26:00.370Z,67.52
2022-09-28T06:28:27.366Z,67.11
2022-09-28T06:30:54.554Z,67.03
2022-09-28T06:33:22.164Z,67.58
2022-09-28T06:35:49.083Z,68.05
2022-09-28T06:38:16.236Z,67.38
2022-09-28T06:40:43.151Z,67.63
2022-09-28T06:43:12.760Z,68.11
2022-09-28T06:45:58.164Z,66.92
2022-09-28T06:48:45.273Z,67.36
2022-09-28T06:51:19.646Z,67.89
2022-09-28T06:54:12.697Z,68.79
2022-09-28T06:56:40.997Z,67.25
2022-09-28T06:59:07.840Z,67.76
2022-09-28T07:01:36.543Z,67.83
2022-09-28T07:04:10.599Z,68.05
2022-09-28T07:06:56.031Z,67.72
2022-09-28T07:09:44.963Z,68.14
2022-09-28T07:12:36.313Z,68.12
2022-09-28T07:15:12.292Z,67.08
2022-09-28T07:17:54.554Z,67.29
2022-09-28T07:20:25.562Z,66.71
2022-09-28T07:22:59.433Z,66.98
2022-09-28T07:25:31.701Z,68.75
2022-09-28T07:28:18.861Z,67.89
2022-09-28T07:31:25.332Z,69.51
2022-09-28T07:34:11.378Z,68.21
2022-09-28T07:36:58.958Z,68.14
2022-09-28T07:39:26.174Z,68.63
2022-09-28T07:41:56.667Z,69.08
2022-09-28T07:44:28.003Z,68.03
2022-09-28T07:46:54.857Z,68.87
2022-09-28T07:49:36.857Z,68.70
2022-09-28T07:52:28.983Z,67.98
2022-09-28T07:55:16.193Z,67.28
2022-09-28T07:58:01.948Z,68.24
2022-09-28T08:00:49.790Z,66.74
2022-09-28T08:03:18.864Z,67.29
2022-09-28T08:05:46.977Z,68.15
2022-09-28T08:08:15.143Z,67.72
2022-09-28T08:10:46.883Z,67.48
2022-09-28T08:13:37.619Z,67.31
2022-09-28T08:16:23.446Z,67.20
2022-09-28T08:18:58.286Z,67.66
2022-09-28T08:21:44.468Z,66.47
2022-09-28T08:24:14.151Z,68.22
2022-09-28T08:26:41.467Z,67.37
2022-09-28T08:29:08.600Z,66.63
2022-09-28T08:31:57.266Z,65.98
2022-09-28T08:34:40.409Z,65.65
2022-09-28T08:37:27.583Z,65.90
2022-09-28T08:40:18.840Z,63.67
2022-09-28T08:43:14.316Z,64.85
2022-09-28T08:46:13.621Z,64.29
2022-09-28T08:49:27.230Z,64.84
2022-09-28T08:52:38.937Z,64.71
2022-09-28T08:55:28.826Z,63.87
2022-09-28T08:58:05.101Z,64.82
2022-09-28T09:00:49.189Z,65.38
2022-09-28T09:03:22.603Z,65.17
2022-09-28T09:06:04.769Z,65.02
2022-09-28T09:08:47.941Z,65.79
2022-09-28T09:11:34.331Z,64.87
2022-09-28T09:14:34.115Z,65.08
2022-09-28T09:17:34.759Z,61.43
2022-09-28T09:20:34.188Z,61.96
2022-09-28T09:23:39.373Z,62.26
2022-09-28T09:26:39.370Z,61.79
2022-09-28T09:29:33.048Z,61.76
2022-09-28T09:32:14.662Z,60.67
2022-09-28T09:35:01.518Z,62.49
2022-09-28T09:38:07.234Z,62.79
2022-09-28T09:40:58.406Z,62.44
2022-09-28T09:44:20.829Z,65.17
2022-09-28T09:47:10.482Z,64.87
2022-09-28T09:50:08.366Z,63.25
2022-09-28T09:53:00.706Z,64.16
2022-09-28T09:55:30.477Z,62.39
2022-09-28T09:58:29.395Z,63.11
2022-09-28T10:01:18.576Z,63.00
2022-09-28T10:04:23.538Z,63.15
2022-09-28T10:06:57.574Z,63.49
2022-09-28T10:09:30.352Z,63.69
2022-09-28T10:12:22.794Z,64.52
2022-09-28T10:14:50.713Z,63.07
2022-09-28T10:17:20.130Z,63.75
2022-09-28T10:20:06.726Z,62.86
2022-09-28T10:22:53.812Z,64.88
2022-09-28T10:25:21.925Z,64.22
2022-09-28T10:27:52.665Z,64.50
2022-09-28T10:30:25.215Z,64.33
2022-09-28T10:32:55.593Z,64.01
2022-09-28T10:35:25.869Z,64.35
2022-09-28T10:38:17.040Z,64.60
2022-09-28T10:40:48.231Z,65.63
2022-09-28T10:43:38.619Z,64.88
2022-09-28T10:46:21.382Z,64.53
2022-09-28T10:48:59.725Z,62.19
2022-09-28T10:51:53.665Z,63.13
2022-09-28T10:54:32.051Z,63.82
2022-09-28T10:57:01.182Z,64.70
2022-09-28T10:59:48.230Z,65.49
2022-09-28T11:02:36.602Z,65.07
2022-09-28T11:05:19.867Z,64.17
2022-09-28T11:07:48.225Z,63.10
2022-09-28T11:10:29.035Z,63.22
2022-09-28T11:13:02.062Z,63.29
2022-09-28T11:15:33.253Z,64.49
2022-09-28T11:18:22.637Z,64.24
2022-09-28T11:20:49.814Z,64.99
2022-09-28T11:23:30.164Z,65.72
2022-09-28T11:26:18.321Z,67.19
2022-09-28T11:28:57.165Z,65.59
2022-09-28T11:31:54.032Z,65.81
2022-09-28T11:34:57.528Z,65.88
2022-09-28T11:41:30.986Z,65.99
2022-09-28T11:44:24.832Z,66.04
2022-09-28T11:47:38.704Z,65.82
2022-09-28T11:50:24.600Z,65.56
2022-09-28T11:53:11.716Z,64.65
2022-09-28T11:59:27.878Z,65.63
2022-09-28T12:02:23.585Z,65.65
2022-09-28T12:05:08.826Z,65.44
2022-09-28T12:08:01.375Z,66.04
2022-09-28T12:10:57.520Z,65.65
2022-09-28T12:17:07.614Z,63.18
2022-09-28T12:20:01.067Z,63.88
2022-09-28T12:23:15.319Z,64.30
2022-09-28T12:25:56.312Z,64.10
2022-09-28T12:28:51.557Z,63.03
2022-09-28T12:31:29.663Z,62.71
2022-09-28T12:34:12.442Z,62.34
2022-09-28T12:37:26.214Z,63.15
2022-09-28T12:40:37.803Z,62.86
2022-09-28T12:43:13.123Z,63.86
2022-09-28T12:46:15.807Z,63.86
2022-09-28T12:49:51.611Z,63.65
2022-09-28T12:51:59.672Z,64.13
2022-09-28T12:54:35.385Z,63.84
2022-09-28T12:57:14.394Z,62.71
2022-09-28T13:00:05.857Z,63.98
2022-09-28T13:02:41.837Z,65.15
2022-09-28T13:05:14.658Z,63.50
2022-09-28T13:07:56.527Z,62.14
2022-09-28T13:10:41.920Z,62.50
2022-09-28T13:13:56.542Z,62.54
2022-09-28T13:16:46.054Z,63.40
2022-09-28T13:19:43.770Z,61.94
2022-09-28T13:22:44.189Z,62.42
2022-09-28T13:25:18.077Z,62.06
2022-09-28T13:27:53.400Z,61.55
2022-09-28T13:30:20.543Z,61.75
2022-09-28T13:32:49.899Z,62.44
2022-09-28T13:35:21.493Z,61.91
2022-09-28T13:38:08.595Z,62.28
2022-09-28T13:41:06.345Z,62.03
2022-09-28T13:43:57.433Z,62.01
2022-09-28T13:46:51.842Z,61.68
2022-09-28T13:49:27.722Z,61.68
2022-09-28T13:52:30.676Z,60.25
2022-09-28T13:55:14.406Z,62.33
2022-09-28T13:58:04.560Z,62.51
2022-09-28T14:00:51.594Z,62.51
2022-09-28T14:03:37.232Z,62.01
2022-09-28T14:06:21.163Z,62.60
2022-09-28T14:09:18.561Z,62.49
2022-09-28T14:12:02.114Z,63.75
2022-09-28T14:14:48.229Z,62.67
2022-09-28T14:17:20.944Z,63.38
2022-09-28T14:19:57.119Z,63.08
2022-09-28T14:22:29.855Z,62.88
2022-09-28T14:25:17.372Z,62.32
2022-09-28T14:28:16.945Z,63.76
2022-09-28T14:30:43.772Z,62.80
2022-09-28T14:33:22.653Z,62.38
2022-09-28T14:35:54.107Z,63.22
2022-09-28T14:38:47.543Z,62.56
2022-09-28T14:41:18.134Z,63.26
2022-09-28T14:43:45.326Z,63.37
2022-09-28T14:46:26.095Z,64.67
2022-09-28T14:48:58.470Z,64.23
2022-09-28T14:51:34.325Z,64.67
2022-09-28T14:54:03.870Z,64.52
2022-09-28T14:56:41.089Z,64.29
2022-09-28T14:59:19.743Z,64.24
2022-09-28T15:04:52.552Z,64.69
2022-09-28T15:07:42.142Z,65.13
2022-09-28T15:10:34.436Z,65.06
2022-09-28T15:13:25.972Z,64.96
2022-09-28T15:16:18.738Z,64.80
2022-09-28T15:18:56.349Z,65.17
2022-09-28T15:21:33.855Z,65.82
2022-09-28T15:24:02.749Z,65.42
2022-09-28T15:26:33.145Z,65.09
2022-09-28T15:29:03.130Z,65.13
2022-09-28T15:31:34.754Z,64.18
2022-09-28T15:34:20.261Z,64.02
2022-09-28T15:36:47.495Z,63.01
2022-09-28T15:39:41.529Z,62.61
2022-09-28T15:42:08.476Z,63.66
2022-09-28T15:44:37.214Z,63.16
2022-09-28T15:47:26.956Z,63.36
2022-09-28T15:50:04.800Z,63.51
2022-09-28T15:52:45.149Z,62.85
2022-09-28T15:55:29.079Z,62.41
2022-09-28T15:58:17.275Z,63.24
2022-09-28T16:00:46.785Z,62.74
2022-09-28T16:03:35.250Z,63.09
2022-09-28T16:06:15.418Z,63.44
2022-09-28T16:08:50.454Z,63.54
2022-09-28T16:11:43.374Z,63.82
2022-09-28T16:14:23.253Z,63.25
2022-09-28T16:17:38.554Z,63.99
2022-09-28T16:20:29.023Z,63.79
2022-09-28T16:23:08.057Z,63.77
2022-09-28T16:26:04.357Z,64.07
2022-09-28T16:28:37.602Z,64.43
2022-09-28T16:31:13.882Z,65.57
2022-09-28T16:33:55.631Z,65.33
2022-09-28T16:36:40.253Z,66.11
2022-09-28T16:39:07.105Z,65.86
2022-09-28T16:41:34.479Z,66.11
2022-09-28T16:44:07.156Z,65.98
2022-09-28T16:49:24.203Z,65.73
2022-09-28T16:52:08.749Z,64.89
2022-09-28T16:58:14.864Z,66.22
2022-09-28T17:00:48.908Z,66.55
2022-09-28T17:03:24.042Z,66.24
2022-09-28T17:05:51.707Z,66.31
2022-09-28T17:08:25.468Z,66.28
2022-09-28T17:11:15.863Z,65.60
2022-09-28T17:13:46.397Z,66.89
2022-09-28T17:16:36.718Z,66.57
2022-09-28T17:19:24.201Z,66.38
2022-09-28T17:21:56.448Z,66.70
2022-09-28T17:24:24.677Z,66.36
2022-09-28T17:26:55.151Z,65.66
2022-09-28T17:32:20.694Z,65.54
2022-09-28T17:35:00.740Z,65.68
2022-09-28T17:37:46.520Z,65.58
2022-09-28T17:40:24.170Z,65.34
2022-09-28T17:43:06.637Z,65.58
2022-09-28T17:45:41.308Z,65.38
2022-09-28T17:48:26.441Z,65.44
2022-09-28T17:51:05.247Z,66.74
2022-09-28T17:53:39.368Z,66.37
2022-09-28T17:56:13.197Z,66.00
2022-09-28T17:58:41.138Z,65.93
2022-09-28T18:01:09.302Z,66.26
2022-09-28T18:03:39.621Z,66.30
2022-09-28T18:06:32.424Z,67.08
2022-09-28T18:09:03.138Z,67.14
2022-09-28T18:11:39.462Z,66.90
2022-09-28T18:14:15.205Z,66.89
2022-09-28T18:16:46.749Z,67.45
2022-09-28T18:19:19.614Z,67.42
2022-09-28T18:21:55.272Z,67.64
2022-09-28T18:24:27.382Z,66.85
2022-09-28T18:26:54.614Z,67.25
2022-09-28T18:29:35.567Z,66.59
2022-09-28T18:32:03.797Z,65.79
2022-09-28T18:37:28.069Z,67.60
2022-09-28T18:39:55.687Z,68.27
2022-09-28T18:42:26.331Z,67.97
2022-09-28T18:44:54.973Z,67.93
2022-09-28T18:47:22.537Z,67.54
2022-09-28T18:49:51.043Z,67.60
2022-09-28T18:52:17.762Z,67.96
2022-09-28T18:54:46.755Z,68.00
2022-09-28T18:57:13.502Z,67.84
2022-09-28T18:59:40.176Z,66.74
2022-09-28T19:02:07.059Z,67.36
2022-09-28T19:04:33.879Z,67.05
2022-09-28T19:07:00.580Z,67.83
2022-09-28T19:09:28.164Z,67.54
2022-09-28T19:11:54.902Z,66.23
2022-09-28T19:14:21.755Z,67.10
2022-09-28T19:16:49.581Z,67.68
2022-09-28T19:19:19.126Z,67.83
2022-09-28T19:21:47.728Z,68.21
2022-09-28T19:24:16.505Z,68.73
2022-09-28T19:26:44.072Z,68.44
2022-09-28T19:29:11.164Z,68.84
2022-09-28T19:31:38.278Z,67.69
2022-09-28T19:34:06.166Z,68.60
2022-09-28T19:36:33.626Z,68.67
2022-09-28T19:39:04.152Z,67.96
2022-09-28T19:41:43.302Z,68.14
2022-09-28T19:44:13.491Z,68.46
2022-09-28T19:46:40.790Z,68.12
2022-09-28T19:49:10.884Z,68.42
2022-09-28T19:51:46.963Z,68.69
2022-09-28T19:54:26.636Z,67.76
2022-09-28T19:56:54.070Z,66.83
2022-09-28T19:59:21.479Z,67.21
2022-09-28T20:01:49.125Z,66.94
2022-09-28T20:04:16.150Z,67.22
2022-09-28T20:06:43.328Z,66.52
2022-09-28T20:09:10.121Z,66.62
2022-09-28T20:11:37.004Z,67.22
2022-09-28T20:14:09.603Z,66.39
2022-09-28T20:16:36.844Z,66.26
2022-09-28T20:19:04.908Z,67.39
2022-09-28T20:21:31.700Z,66.46
2022-09-28T20:23:58.535Z,66.38
2022-09-28T20:26:26.857Z,66.96
2022-09-28T20:28:54.460Z,67.83
2022-09-28T20:31:24.999Z,66.21
2022-09-28T20:33:52.098Z,66.69
2022-09-28T20:36:23.739Z,66.60
2022-09-28T20:38:53.026Z,66.64
2022-09-28T20:41:22.056Z,65.65
2022-09-28T20:43:56.685Z,65.94
2022-09-28T20:46:24.048Z,66.12
2022-09-28T20:48:52.032Z,65.58
2022-09-28T20:51:20.185Z,65.33
2022-09-28T20:53:51.070Z,65.02
2022-09-28T20:56:23.546Z,64.89
2022-09-28T20:58:51.208Z,65.64
2022-09-28T21:01:22.381Z,64.85
2022-09-28T21:03:52.009Z,64.48
2022-09-28T21:06:20.514Z,65.79
2022-09-28T21:08:48.960Z,65.38
2022-09-28T21:11:20.941Z,65.32
2022-09-28T21:13:51.625Z,65.24
2022-09-28T21:16:18.395Z,64.98
2022-09-28T21:18:45.343Z,64.77
2022-09-28T21:21:14.900Z,65.81
2022-09-28T21:23:44.930Z,66.81
2022-09-28T21:26:26.636Z,66.75
2022-09-28T21:29:01.329Z,66.38
2022-09-28T21:31:31.545Z,65.86
2022-09-28T21:33:58.780Z,65.76
2022-09-28T21:36:25.564Z,65.84
2022-09-28T21:38:53.575Z,65.91
2022-09-28T21:41:20.218Z,66.69
2022-09-28T21:43:46.992Z,66.22
2022-09-28T21:46:13.939Z,66.17
2022-09-28T21:48:41.037Z,67.34
2022-09-28T21:51:10.163Z,68.28
2022-09-28T21:53:38.151Z,67.13
2022-09-28T21:56:09.647Z,66.88
2022-09-28T21:58:36.524Z,66.29
2022-09-28T22:01:05.344Z,66.09
2022-09-28T22:03:33.858Z,66.71
2022-09-28T22:06:00.559Z,66.83
2022-09-28T22:08:27.414Z,66.05
2022-09-28T22:11:19.083Z,66.31
2022-09-28T22:13:54.343Z,65.92
2022-09-28T22:16:23.138Z,65.56
2022-09-28T22:18:50.131Z,65.36
2022-09-28T22:21:20.049Z,65.51
2022-09-28T22:23:47.059Z,65.42
2022-09-28T22:26:19.581Z,65.55
2022-09-28T22:28:48.566Z,66.73
2022-09-28T22:31:16.756Z,65.33
2022-09-28T22:33:44.077Z,65.03
2022-09-28T22:36:11.076Z,64.43
2022-09-28T22:38:37.882Z,65.78
2022-09-28T22:41:04.731Z,66.27
2022-09-28T22:43:31.793Z,65.93
2022-09-28T22:46:16.858Z,65.07
2022-09-28T22:49:01.872Z,65.81
2022-09-28T22:51:29.919Z,65.61
2022-09-28T22:53:56.948Z,65.24
2022-09-28T22:56:24.040Z,65.59
2022-09-28T22:58:51.034Z,65.72
2022-09-28T23:01:21.169Z,67.01
2022-09-28T23:03:48.572Z,66.39
2022-09-28T23:06:17.655Z,66.69
2022-09-28T23:08:45.541Z,66.45
2022-09-28T23:11:12.207Z,66.24
2022-09-28T23:13:39.170Z,65.33
2022-09-28T23:16:08.250Z,66.07
2022-09-28T23:18:37.176Z,66.58
2022-09-28T23:21:06.027Z,67.01
2022-09-28T23:23:33.054Z,66.01
2022-09-28T23:26:00.489Z,66.78
2022-09-28T23:28:27.752Z,66.88
2022-09-28T23:30:54.742Z,66.71
2022-09-28T23:33:22.280Z,66.33
2022-09-28T23:35:49.840Z,66.48
2022-09-28T23:38:18.323Z,66.46
2022-09-28T23:40:46.730Z,66.80
2022-09-28T23:43:14.650Z,67.06
2022-09-28T23:45:44.581Z,67.29
2022-09-28T23:48:13.363Z,67.15
2022-09-28T23:50:40.024Z,66.98
2022-09-28T23:53:06.792Z,66.36
2022-09-28T23:55:33.450Z,66.07
2022-09-28T23:58:00.255Z,66.13
